Bratislava, Slovakia
Current Conditions -  °F | °C
As of 9:30 AM on Saturday 29 Nov 2014 (Local Time) from LZIB Reporting Station
Drizzle Drizzle  
Wind Chill: 29°   Ceiling: 400
Heat Index: 36°   Visibility: 0.93mi
Dew Point: 34°   Wind: 8mph
Humidity: 93%   Direction: 90°E
Pressure: 30.12"   Gusts: NA
Location:  48.16°N, 17.13°E
Report Text: LZIB 290730Z 09007KT 1500 -DZ BR OVC004 02/01 Q1020 BECMG 2000-DZ BR
Loading
Personal Weather Stations






























Interactive Weather Map New forecast layout! Learn more

10-Day Weather Forecast

Advertisements
Track Severe Weather on mobile